createdAt,value
2019-02-08T00:00:27.696Z,51.60
2019-02-08T00:02:56.132Z,53.03
2019-02-08T00:05:24.570Z,40.97
2019-02-08T00:07:52.981Z,59.60
2019-02-08T00:10:21.418Z,62.07
2019-02-08T00:12:49.995Z,48.37
2019-02-08T00:15:20.147Z,49.30
2019-02-08T00:17:48.726Z,55.00
2019-02-08T00:20:17.732Z,62.60
2019-02-08T00:22:46.189Z,49.43
2019-02-08T00:25:15.909Z,53.53
2019-02-08T00:27:45.575Z,36.00
2019-02-08T00:30:16.365Z,53.67
2019-02-08T00:32:45.877Z,48.53
2019-02-08T00:35:15.275Z,42.53
2019-02-08T00:37:43.643Z,51.30
2019-02-08T00:40:13.511Z,41.90
2019-02-08T00:42:42.034Z,37.30
2019-02-08T00:45:11.938Z,47.37
2019-02-08T00:47:40.455Z,42.87
2019-02-08T00:50:10.604Z,45.20
2019-02-08T00:52:38.919Z,50.37
2019-02-08T00:55:08.599Z,44.27
2019-02-08T00:57:37.006Z,45.53
2019-02-08T01:00:06.919Z,37.93
2019-02-08T01:02:36.236Z,46.80
2019-02-08T01:05:06.354Z,48.07
2019-02-08T01:07:35.026Z,53.20
2019-02-08T01:10:05.056Z,41.47
2019-02-08T01:12:33.530Z,44.13
2019-02-08T01:15:02.034Z,45.83
2019-02-08T01:17:30.658Z,49.30
2019-02-08T01:19:59.195Z,26.03
2019-02-08T01:22:28.698Z,43.43
2019-02-08T01:24:57.052Z,49.87
2019-02-08T01:27:25.554Z,46.87
2019-02-08T01:29:53.857Z,48.03
2019-02-08T01:32:22.309Z,50.17
2019-02-08T01:34:50.814Z,39.00
2019-02-08T01:37:19.197Z,56.70
2019-02-08T01:39:47.708Z,49.50
2019-02-08T01:42:15.991Z,43.80
2019-02-08T01:44:44.358Z,40.47
2019-02-08T01:47:12.800Z,52.00
2019-02-08T01:49:41.138Z,49.83
2019-02-08T01:52:09.546Z,41.53
2019-02-08T01:54:37.938Z,44.73
2019-02-08T01:57:06.219Z,42.27
2019-02-08T01:59:34.658Z,37.60
2019-02-08T02:02:03.199Z,43.00
2019-02-08T02:04:31.581Z,37.87
2019-02-08T02:06:59.946Z,48.90
2019-02-08T02:09:28.426Z,54.40
2019-02-08T02:11:56.899Z,33.90
2019-02-08T02:14:26.760Z,39.47
2019-02-08T02:16:55.432Z,42.93
2019-02-08T02:19:23.894Z,46.57
2019-02-08T02:21:52.474Z,47.33
2019-02-08T02:24:20.851Z,41.90
2019-02-08T02:26:49.246Z,41.90
2019-02-08T02:29:17.614Z,33.77
2019-02-08T02:31:45.858Z,59.13
2019-02-08T02:34:14.377Z,45.10
2019-02-08T02:36:42.838Z,42.80
2019-02-08T02:39:11.216Z,45.57
2019-02-08T02:41:39.726Z,41.27
2019-02-08T02:44:08.066Z,43.03
2019-02-08T02:46:36.356Z,44.70
2019-02-08T02:49:04.969Z,59.50
2019-02-08T02:51:33.312Z,50.20
2019-02-08T02:54:04.959Z,47.67
2019-02-08T02:56:31.821Z,49.43
2019-02-08T02:59:00.238Z,41.13
2019-02-08T03:01:28.688Z,35.43
2019-02-08T03:03:56.918Z,24.97
2019-02-08T03:06:25.266Z,49.90
2019-02-08T03:08:53.734Z,41.63
2019-02-08T03:11:22.141Z,44.77
2019-02-08T03:13:50.578Z,35.03
2019-02-08T03:16:19.058Z,45.33
2019-02-08T03:18:47.566Z,48.23
2019-02-08T03:21:15.861Z,33.20
2019-02-08T03:23:44.214Z,41.93
2019-02-08T03:26:12.730Z,50.97
2019-02-08T03:28:41.174Z,45.50
2019-02-08T03:31:09.676Z,46.43
2019-02-08T03:33:38.047Z,42.17
2019-02-08T03:36:06.634Z,41.77
2019-02-08T03:38:34.937Z,33.57
2019-02-08T03:41:03.386Z,42.57
2019-02-08T03:43:31.834Z,39.23
2019-02-08T03:46:00.125Z,41.50
2019-02-08T03:48:28.505Z,44.90
2019-02-08T03:50:56.892Z,48.43
2019-02-08T03:53:25.375Z,46.50
2019-02-08T03:55:58.508Z,40.10
2019-02-08T03:58:23.934Z,35.83
2019-02-08T04:00:54.087Z,45.73
2019-02-08T04:03:23.446Z,47.47
2019-02-08T04:05:52.010Z,44.33
2019-02-08T04:08:20.559Z,46.73
2019-02-08T04:10:48.738Z,43.77
2019-02-08T04:13:17.109Z,44.23
2019-02-08T04:15:45.593Z,42.13
2019-02-08T04:18:13.748Z,45.27
2019-02-08T04:20:42.252Z,41.53
2019-02-08T04:23:10.560Z,36.77
2019-02-08T04:25:38.747Z,42.33
2019-02-08T04:28:07.195Z,48.03
2019-02-08T04:30:35.618Z,43.53
2019-02-08T04:33:04.266Z,39.10
2019-02-08T04:35:32.646Z,45.77
2019-02-08T04:38:01.162Z,47.00
2019-02-08T04:40:29.594Z,38.97
2019-02-08T04:42:58.019Z,41.47
2019-02-08T04:45:26.345Z,37.33
2019-02-08T04:47:54.861Z,49.13
2019-02-08T04:50:24.877Z,40.10
2019-02-08T04:52:54.378Z,39.30
2019-02-08T04:55:22.868Z,41.77
2019-02-08T04:57:51.146Z,46.60
2019-02-08T05:00:21.146Z,26.40
2019-02-08T05:02:49.546Z,46.97
2019-02-08T05:05:18.041Z,45.10
2019-02-08T05:07:46.608Z,47.03
2019-02-08T05:10:16.715Z,49.47
2019-02-08T05:12:45.182Z,37.80
2019-02-08T05:15:13.924Z,44.03
2019-02-08T05:17:42.324Z,39.77
2019-02-08T05:20:13.389Z,48.07
2019-02-08T05:22:41.900Z,36.03
2019-02-08T05:25:10.713Z,46.33
2019-02-08T05:27:39.117Z,50.97
2019-02-08T05:30:08.888Z,40.97
2019-02-08T05:32:37.206Z,44.97
2019-02-08T05:35:06.812Z,40.67
2019-02-08T05:37:35.358Z,35.93
2019-02-08T05:40:05.551Z,48.17
2019-02-08T05:42:33.966Z,49.47
2019-02-08T05:45:02.226Z,46.70
2019-02-08T05:47:30.594Z,40.77
2019-02-08T05:49:58.887Z,46.67
2019-02-08T05:52:27.474Z,48.60
2019-02-08T05:54:55.787Z,29.10
2019-02-08T05:57:24.126Z,34.90
2019-02-08T05:59:52.483Z,42.97
2019-02-08T06:02:20.911Z,42.87
2019-02-08T06:04:49.355Z,41.80
2019-02-08T06:07:18.283Z,36.37
2019-02-08T06:09:46.675Z,43.90
2019-02-08T06:12:14.954Z,53.33
2019-02-08T06:14:43.178Z,40.80
2019-02-08T06:17:11.458Z,43.63
2019-02-08T06:19:39.934Z,42.33
2019-02-08T06:22:08.526Z,45.10
2019-02-08T06:24:36.944Z,36.73
2019-02-08T06:27:05.331Z,53.93
2019-02-08T06:29:34.221Z,38.90
2019-02-08T06:32:02.798Z,48.27
2019-02-08T06:34:31.259Z,47.90
2019-02-08T06:36:59.619Z,39.50
2019-02-08T06:39:29.337Z,37.97
2019-02-08T06:41:57.892Z,27.97
2019-02-08T06:44:26.816Z,36.67
2019-02-08T06:46:55.239Z,32.80
2019-02-08T06:49:23.674Z,46.87
2019-02-08T06:51:52.055Z,41.60
2019-02-08T06:54:20.343Z,41.20
2019-02-08T06:56:51.426Z,47.13
2019-02-08T06:59:21.383Z,38.07
2019-02-08T07:01:51.338Z,43.40
2019-02-08T07:04:21.516Z,45.03
2019-02-08T07:06:51.500Z,40.33
2019-02-08T07:09:21.457Z,43.23
2019-02-08T07:11:51.374Z,46.30
2019-02-08T07:14:21.243Z,49.07
2019-02-08T07:16:51.184Z,39.33
2019-02-08T07:19:21.174Z,45.03
2019-02-08T07:21:51.027Z,50.63
2019-02-08T07:24:21.023Z,39.97
2019-02-08T07:26:50.985Z,48.87
2019-02-08T07:29:23.522Z,50.07
2019-02-08T07:31:53.574Z,43.47
2019-02-08T07:34:21.785Z,45.00
2019-02-08T07:36:50.151Z,35.80
2019-02-08T07:39:21.594Z,35.90
2019-02-08T07:41:51.626Z,42.30
2019-02-08T07:44:22.779Z,44.40
2019-02-08T07:46:54.139Z,50.97
2019-02-08T07:49:24.602Z,38.73
2019-02-08T07:51:54.513Z,45.27
2019-02-08T07:54:24.505Z,43.77
2019-02-08T07:56:54.849Z,38.33
2019-02-08T07:59:23.049Z,44.83
2019-02-08T08:01:53.043Z,34.17
2019-02-08T08:04:23.175Z,23.90
2019-02-08T08:06:53.205Z,45.43
2019-02-08T08:09:23.535Z,42.43
2019-02-08T08:11:53.711Z,50.13
2019-02-08T08:14:23.755Z,49.50
2019-02-08T08:16:54.785Z,45.43
2019-02-08T08:19:25.179Z,46.97
2019-02-08T08:21:55.043Z,42.17
2019-02-08T08:24:27.519Z,53.23
2019-02-08T08:26:57.711Z,58.53
2019-02-08T08:29:27.940Z,41.30
2019-02-08T08:32:01.959Z,41.07
2019-02-08T08:34:32.918Z,52.40
2019-02-08T08:37:02.679Z,43.57
2019-02-08T08:39:34.072Z,54.03
2019-02-08T08:42:03.942Z,58.60
2019-02-08T08:44:33.741Z,57.57
2019-02-08T08:47:03.458Z,44.20
2019-02-08T08:49:33.239Z,48.20
2019-02-08T08:52:05.697Z,41.57
2019-02-08T08:54:35.788Z,45.33
2019-02-08T08:57:06.552Z,43.93
2019-02-08T08:59:36.334Z,43.30
2019-02-08T09:02:06.206Z,50.33
2019-02-08T09:04:34.115Z,46.77
2019-02-08T09:07:03.898Z,40.30
2019-02-08T09:09:33.659Z,41.73
2019-02-08T09:12:03.526Z,46.60
2019-02-08T09:14:33.268Z,33.20
2019-02-08T09:17:03.134Z,47.27
2019-02-08T09:19:30.986Z,41.23
2019-02-08T09:22:00.727Z,41.27
2019-02-08T09:24:30.498Z,49.37
2019-02-08T09:27:00.238Z,38.27
2019-02-08T09:29:30.345Z,51.37
2019-02-08T09:32:00.286Z,42.60
2019-02-08T09:34:30.098Z,50.57
2019-02-08T09:36:59.878Z,45.97
2019-02-08T09:39:29.794Z,41.27
2019-02-08T09:41:59.516Z,46.17
2019-02-08T09:44:29.413Z,33.50
2019-02-08T09:46:59.298Z,42.23
2019-02-08T09:49:29.264Z,35.97
2019-02-08T09:51:58.967Z,38.13
2019-02-08T09:54:28.790Z,48.73
2019-02-08T09:56:58.614Z,43.23
2019-02-08T09:59:28.278Z,43.67
2019-02-08T10:01:58.060Z,31.23
2019-02-08T10:04:27.763Z,49.87
2019-02-08T10:06:57.594Z,29.67
2019-02-08T10:09:27.475Z,43.17
2019-02-08T10:11:57.326Z,45.23
2019-02-08T10:14:27.278Z,46.23
2019-02-08T10:16:57.093Z,31.30
2019-02-08T10:19:25.165Z,34.73
2019-02-08T10:21:56.634Z,48.60
2019-02-08T10:24:26.742Z,44.17
2019-02-08T10:26:56.626Z,46.73
2019-02-08T10:29:26.459Z,42.53
2019-02-08T10:31:56.485Z,37.73
2019-02-08T10:34:26.166Z,45.40
2019-02-08T10:36:55.868Z,33.23
2019-02-08T10:39:25.699Z,41.10
2019-02-08T10:41:55.754Z,47.77
2019-02-08T10:44:25.666Z,34.87
2019-02-08T10:46:55.564Z,50.53
2019-02-08T10:49:25.386Z,40.20
2019-02-08T10:51:55.081Z,42.77
2019-02-08T10:54:24.841Z,41.87
2019-02-08T10:56:54.740Z,24.27
2019-02-08T10:59:24.533Z,42.70
2019-02-08T11:01:52.364Z,44.40
2019-02-08T11:04:23.464Z,42.50
2019-02-08T11:06:53.353Z,45.60
2019-02-08T11:09:23.240Z,40.23
2019-02-08T11:11:52.899Z,45.50
2019-02-08T11:14:22.844Z,45.57
2019-02-08T11:16:52.705Z,39.20
2019-02-08T11:19:20.698Z,33.03
2019-02-08T11:21:49.838Z,36.17
2019-02-08T11:24:19.418Z,41.90
2019-02-08T11:26:47.710Z,36.17
2019-02-08T11:29:16.065Z,34.17
2019-02-08T11:31:47.139Z,42.03
2019-02-08T11:34:15.775Z,35.43
2019-02-08T11:36:44.014Z,42.70
2019-02-08T11:39:13.599Z,38.03
2019-02-08T11:41:42.468Z,41.70
2019-02-08T11:44:10.817Z,37.43
2019-02-08T11:46:39.605Z,43.43
2019-02-08T11:49:07.934Z,43.17
2019-02-08T11:51:36.358Z,44.50
2019-02-08T11:54:04.903Z,41.37
2019-02-08T11:56:33.270Z,44.17
2019-02-08T11:59:01.797Z,36.83
2019-02-08T12:01:32.836Z,36.17
2019-02-08T12:04:01.261Z,36.17
2019-02-08T12:06:29.612Z,38.03
2019-02-08T12:08:58.020Z,40.23
2019-02-08T12:11:26.374Z,41.93
2019-02-08T12:13:54.674Z,40.37
2019-02-08T12:16:22.930Z,41.27
2019-02-08T12:18:51.315Z,45.13
2019-02-08T12:21:19.834Z,39.50
2019-02-08T12:23:48.274Z,36.23
2019-02-08T12:26:16.764Z,36.20
2019-02-08T12:28:45.164Z,50.30
2019-02-08T12:31:13.479Z,41.90
2019-02-08T12:33:41.867Z,42.67
2019-02-08T12:36:10.201Z,42.73
2019-02-08T12:38:39.563Z,41.67
2019-02-08T12:41:09.784Z,36.17
2019-02-08T12:43:38.919Z,41.90
2019-02-08T12:46:07.375Z,38.63
2019-02-08T12:48:36.548Z,37.73
2019-02-08T12:51:05.101Z,45.23
2019-02-08T12:53:34.539Z,35.53
2019-02-08T12:56:02.974Z,39.77
2019-02-08T12:58:43.403Z,32.53
2019-02-08T13:01:17.274Z,40.17
2019-02-08T13:03:45.529Z,36.97
2019-02-08T13:06:14.930Z,38.53
2019-02-08T13:08:43.271Z,35.23
2019-02-08T13:11:11.571Z,43.47
2019-02-08T13:13:39.833Z,37.93
2019-02-08T13:16:08.266Z,31.13
2019-02-08T13:18:36.473Z,32.73
2019-02-08T13:21:04.826Z,30.73
2019-02-08T13:23:33.235Z,38.60
2019-02-08T13:26:01.454Z,31.83
2019-02-08T13:28:29.686Z,33.83
2019-02-08T13:30:59.546Z,34.50
2019-02-08T13:33:27.818Z,38.17
2019-02-08T13:35:56.022Z,28.10
2019-02-08T13:38:24.804Z,30.90
2019-02-08T13:40:53.106Z,43.83
2019-02-08T13:43:21.403Z,34.37
2019-02-08T13:45:49.673Z,38.73
2019-02-08T13:48:17.822Z,30.30
2019-02-08T13:50:46.060Z,29.30
2019-02-08T13:53:14.221Z,32.63
2019-02-08T13:55:42.584Z,34.10
2019-02-08T13:58:11.016Z,24.90
2019-02-08T14:00:40.363Z,24.27
2019-02-08T14:03:08.904Z,29.73
2019-02-08T14:05:37.396Z,28.73
2019-02-08T14:08:05.907Z,35.80
2019-02-08T14:10:34.237Z,34.70
2019-02-08T14:13:02.589Z,32.20
2019-02-08T14:15:31.171Z,35.00
2019-02-08T14:20:49.754Z,27.93
2019-02-08T14:23:18.055Z,32.77
2019-02-08T14:25:46.408Z,28.97
2019-02-08T14:28:14.764Z,22.90
2019-02-08T14:30:43.668Z,28.03
2019-02-08T14:33:12.073Z,21.80
2019-02-08T14:35:40.712Z,28.50
2019-02-08T14:38:10.380Z,26.10
2019-02-08T14:40:38.815Z,28.13
2019-02-08T14:43:07.155Z,32.60
2019-02-08T14:45:35.469Z,37.57
2019-02-08T14:48:04.354Z,31.50
2019-02-08T14:50:32.779Z,30.20
2019-02-08T14:53:01.216Z,30.97
2019-02-08T14:55:29.536Z,39.90
2019-02-08T14:57:59.264Z,57.03
2019-02-08T15:00:27.884Z,34.57
2019-02-08T15:02:56.539Z,48.97
2019-02-08T15:05:24.880Z,36.13
2019-02-08T15:07:53.280Z,39.00
2019-02-08T15:10:23.498Z,40.67
2019-02-08T15:12:51.914Z,35.80
2019-02-08T15:15:20.405Z,37.30
2019-02-08T15:17:48.794Z,42.00
2019-02-08T15:20:18.717Z,41.53
2019-02-08T15:22:47.094Z,32.97
2019-02-08T15:25:16.019Z,48.67
2019-02-08T15:27:44.303Z,54.60
2019-02-08T15:30:14.176Z,52.07
2019-02-08T15:32:42.568Z,54.53
2019-02-08T15:35:12.412Z,53.93
2019-02-08T15:37:40.762Z,56.00
2019-02-08T15:40:10.708Z,70.13
2019-02-08T15:42:39.152Z,93.53
2019-02-08T15:45:09.001Z,77.53
2019-02-08T15:47:38.965Z,66.47
2019-02-08T15:50:08.302Z,57.70
2019-02-08T15:52:36.704Z,52.87
2019-02-08T15:55:08.619Z,37.67
2019-02-08T15:57:37.028Z,45.00
2019-02-08T16:00:06.865Z,151.57
2019-02-08T16:02:35.366Z,159.57
2019-02-08T16:05:05.515Z,82.27
2019-02-08T16:07:33.723Z,56.37
2019-02-08T16:10:02.078Z,43.17
2019-02-08T16:12:30.446Z,32.93
2019-02-08T16:14:58.955Z,49.03
2019-02-08T16:17:27.366Z,96.13
2019-02-08T16:19:56.727Z,69.27
2019-02-08T16:22:26.417Z,70.20
2019-02-08T16:24:54.833Z,69.57
2019-02-08T16:27:23.112Z,77.30
2019-02-08T16:29:51.567Z,72.27
2019-02-08T16:32:20.080Z,71.37
2019-02-08T16:34:48.634Z,60.20
2019-02-08T16:37:16.946Z,66.37
2019-02-08T16:39:45.424Z,55.30
2019-02-08T16:42:13.894Z,50.23
2019-02-08T16:44:42.289Z,45.43
2019-02-08T16:47:10.939Z,63.00
2019-02-08T16:49:39.312Z,49.00
2019-02-08T16:52:07.769Z,48.30
2019-02-08T16:54:36.098Z,42.53
2019-02-08T16:57:04.774Z,48.90
2019-02-08T16:59:33.128Z,43.97
2019-02-08T17:02:01.423Z,60.73
2019-02-08T17:04:29.906Z,49.97
2019-02-08T17:06:58.321Z,48.73
2019-02-08T17:09:26.748Z,40.27
2019-02-08T17:11:54.899Z,85.57
2019-02-08T17:14:23.234Z,58.10
2019-02-08T17:16:51.716Z,39.93
2019-02-08T17:19:20.102Z,37.80
2019-02-08T17:21:48.487Z,39.30
2019-02-08T17:24:16.790Z,42.23
2019-02-08T17:26:46.474Z,37.00
2019-02-08T17:29:14.867Z,32.07
2019-02-08T17:31:43.950Z,33.87
2019-02-08T17:34:12.270Z,41.77
2019-02-08T17:36:40.922Z,55.83
2019-02-08T17:39:10.778Z,55.00
2019-02-08T17:41:39.248Z,44.73
2019-02-08T17:44:07.682Z,51.47
2019-02-08T17:46:36.139Z,43.37
2019-02-08T17:49:04.540Z,32.67
2019-02-08T17:51:32.939Z,42.77
2019-02-08T17:54:01.358Z,48.90
2019-02-08T17:56:30.746Z,51.57
2019-02-08T17:58:59.065Z,41.57
2019-02-08T18:01:27.911Z,53.13
2019-02-08T18:03:56.198Z,29.20
2019-02-08T18:06:24.497Z,26.97
2019-02-08T18:08:52.856Z,51.97
2019-02-08T18:11:21.296Z,38.60
2019-02-08T18:13:49.547Z,54.67
2019-02-08T18:16:18.026Z,67.13
2019-02-08T18:18:46.264Z,46.63
2019-02-08T18:21:14.581Z,80.30
2019-02-08T18:23:43.026Z,61.03
2019-02-08T18:26:12.391Z,62.13
2019-02-08T18:28:40.706Z,61.33
2019-02-08T18:31:10.736Z,72.37
2019-02-08T18:33:40.426Z,60.13
2019-02-08T18:36:08.913Z,62.07
2019-02-08T18:38:37.258Z,64.53
2019-02-08T18:41:05.658Z,56.00
2019-02-08T18:43:35.020Z,46.90
2019-02-08T18:46:03.387Z,63.63
2019-02-08T18:48:31.663Z,52.67
2019-02-08T18:51:00.296Z,56.07
2019-02-08T18:53:28.635Z,57.37
2019-02-08T18:55:56.940Z,52.23
2019-02-08T18:58:25.394Z,53.77
2019-02-08T19:00:54.202Z,56.00
2019-02-08T19:03:23.514Z,54.03
2019-02-08T19:05:52.176Z,113.90
2019-02-08T19:08:20.735Z,337.83
2019-02-08T19:10:49.427Z,441.20
2019-02-08T19:13:17.712Z,109.70
2019-02-08T19:15:46.214Z,54.40
2019-02-08T19:18:14.519Z,51.40
2019-02-08T19:20:42.865Z,68.37
2019-02-08T19:23:11.246Z,61.87
2019-02-08T19:25:40.940Z,50.73
2019-02-08T19:28:09.987Z,105.57
2019-02-08T19:30:39.194Z,76.10
2019-02-08T19:33:07.627Z,76.67
2019-02-08T19:35:35.998Z,61.93
2019-02-08T19:41:32.349Z,38.37
2019-02-08T19:47:17.079Z,40.67
2019-02-08T19:49:45.512Z,60.80
2019-02-08T19:52:13.899Z,66.20
2019-02-08T19:54:43.523Z,66.57
2019-02-08T20:00:29.125Z,68.33
2019-02-08T20:06:02.210Z,67.70
2019-02-08T20:08:30.552Z,67.77
2019-02-08T20:10:58.817Z,74.37
2019-02-08T20:13:27.416Z,62.90
2019-02-08T20:19:00.230Z,78.13
2019-02-08T20:21:28.579Z,66.50
2019-02-08T20:23:57.154Z,71.83
2019-02-08T20:26:25.506Z,77.67
2019-02-08T20:28:53.779Z,70.03
2019-02-08T20:31:22.074Z,67.70
2019-02-08T20:36:55.512Z,58.73
2019-02-08T20:39:23.916Z,50.47
2019-02-08T20:41:52.263Z,54.23
2019-02-08T20:44:20.467Z,75.10
2019-02-08T20:46:48.751Z,46.60
2019-02-08T20:49:18.103Z,48.73
2019-02-08T20:51:46.313Z,56.63
2019-02-08T20:54:14.874Z,50.43
2019-02-08T20:56:43.198Z,46.47
2019-02-08T21:02:28.068Z,50.07
2019-02-08T21:08:12.928Z,71.63
2019-02-08T21:13:57.398Z,52.37
2019-02-08T21:19:41.735Z,49.33
2019-02-08T21:25:27.414Z,62.17
2019-02-08T21:27:56.053Z,79.70
2019-02-08T21:30:24.427Z,85.53
2019-02-08T21:32:55.695Z,107.07
2019-02-08T21:35:24.068Z,100.30
2019-02-08T21:41:08.298Z,102.97
2019-02-08T21:46:53.457Z,71.77
2019-02-08T21:52:37.739Z,63.70
2019-02-08T21:55:07.538Z,60.20
2019-02-08T22:00:42.147Z,60.30
2019-02-08T22:06:28.159Z,59.83
2019-02-08T22:12:12.561Z,54.37
2019-02-08T22:17:57.584Z,61.23
2019-02-08T22:20:25.978Z,63.20
2019-02-08T22:26:09.819Z,81.73
2019-02-08T22:31:54.134Z,71.97
2019-02-08T22:34:22.543Z,76.80
2019-02-08T22:36:50.822Z,89.10
2019-02-08T22:39:19.041Z,77.70
2019-02-08T22:41:47.395Z,61.80
2019-02-08T22:44:15.586Z,73.20
2019-02-08T22:46:43.942Z,70.77
2019-02-08T22:49:12.195Z,65.17
2019-02-08T22:51:41.990Z,64.93
2019-02-08T22:54:10.327Z,65.27
2019-02-08T22:56:38.547Z,77.43
2019-02-08T22:59:06.907Z,102.83
2019-02-08T23:01:35.983Z,84.37
2019-02-08T23:04:04.909Z,90.77
2019-02-08T23:06:33.360Z,75.07
2019-02-08T23:12:17.488Z,91.70
2019-02-08T23:18:03.255Z,77.37
2019-02-08T23:23:48.723Z,77.00
2019-02-08T23:29:33.054Z,70.70
2019-02-08T23:32:01.391Z,82.80
2019-02-08T23:37:48.036Z,70.73
2019-02-08T23:40:17.183Z,65.17
2019-02-08T23:42:45.521Z,79.87
2019-02-08T23:45:15.068Z,66.23
2019-02-08T23:47:43.454Z,84.93
2019-02-08T23:50:12.850Z,68.50
2019-02-08T23:52:41.355Z,82.27
2019-02-08T23:55:10.705Z,69.53
